createdAt,value
2022-12-03T00:03:25.937Z,20.98
2022-12-03T00:08:29.474Z,21.20
2022-12-03T00:13:32.902Z,20.88
2022-12-03T00:18:37.677Z,20.15
2022-12-03T00:23:42.499Z,21.20
2022-12-03T00:28:46.108Z,20.90
2022-12-03T00:33:51.506Z,21.02
2022-12-03T00:38:54.908Z,23.35
2022-12-03T00:43:58.324Z,22.17
2022-12-03T00:49:03.338Z,22.48
2022-12-03T00:54:06.736Z,21.55
2022-12-03T00:59:10.240Z,20.45
2022-12-03T01:04:15.043Z,21.63
2022-12-03T01:09:18.464Z,22.70
2022-12-03T01:14:22.030Z,20.85
2022-12-03T01:19:26.990Z,22.67
2022-12-03T01:24:30.858Z,21.17
2022-12-03T01:29:34.293Z,20.65
2022-12-03T01:34:39.166Z,22.63
2022-12-03T01:39:43.226Z,20.33
2022-12-03T01:44:47.551Z,21.27
2022-12-03T01:49:55.530Z,21.80
2022-12-03T01:55:01.780Z,21.92
2022-12-03T02:00:06.428Z,21.23
2022-12-03T02:05:17.965Z,21.15
2022-12-03T02:10:26.524Z,21.23
2022-12-03T02:15:30.093Z,21.20
2022-12-03T02:20:39.937Z,21.55
2022-12-03T02:25:44.718Z,21.85
2022-12-03T02:30:48.202Z,20.67
2022-12-03T02:35:51.923Z,20.50
2022-12-03T02:41:00.471Z,23.83
2022-12-03T02:46:05.647Z,20.90
2022-12-03T02:51:11.181Z,20.92
2022-12-03T02:56:19.705Z,20.80
2022-12-03T03:01:23.313Z,21.50
2022-12-03T03:06:26.815Z,21.05
2022-12-03T03:11:31.910Z,21.45
2022-12-03T03:16:35.538Z,21.45
2022-12-03T03:21:38.991Z,22.25
2022-12-03T03:26:43.743Z,21.40
2022-12-03T03:31:48.271Z,23.60
2022-12-03T03:36:51.865Z,22.13
2022-12-03T03:41:56.722Z,20.65
2022-12-03T03:47:00.988Z,21.75
2022-12-03T03:52:04.965Z,19.75
2022-12-03T03:57:09.730Z,21.13
2022-12-03T04:02:20.164Z,20.98
2022-12-03T04:07:23.618Z,20.70
2022-12-03T04:12:45.754Z,22.13
2022-12-03T04:18:09.704Z,20.83
2022-12-03T04:23:13.523Z,19.45
2022-12-03T04:28:35.873Z,20.98
2022-12-03T04:33:56.727Z,19.60
2022-12-03T04:39:00.174Z,20.38
2022-12-03T04:44:22.230Z,21.60
2022-12-03T04:49:25.680Z,22.10
2022-12-03T04:54:29.678Z,22.90
2022-12-03T04:59:35.058Z,22.55
2022-12-03T05:04:39.017Z,21.65
2022-12-03T05:09:42.468Z,23.65
2022-12-03T05:14:47.235Z,21.88
2022-12-03T05:20:08.044Z,22.58
2022-12-03T05:25:11.692Z,24.70
2022-12-03T05:30:16.740Z,23.23
2022-12-03T05:35:20.133Z,24.98
2022-12-03T05:40:23.809Z,24.50
2022-12-03T05:45:30.886Z,24.48
2022-12-03T05:50:36.843Z,23.15
2022-12-03T05:55:40.410Z,25.15
2022-12-03T06:00:45.137Z,23.65
2022-12-03T06:05:48.530Z,23.10
2022-12-03T06:10:52.530Z,22.63
2022-12-03T06:15:57.338Z,22.50
2022-12-03T06:21:00.962Z,24.05
2022-12-03T06:26:04.427Z,25.85
2022-12-03T06:31:09.330Z,23.98
2022-12-03T06:36:13.642Z,24.25
2022-12-03T06:41:17.387Z,24.38
2022-12-03T06:46:22.229Z,23.05
2022-12-03T06:51:25.686Z,23.65
2022-12-03T06:56:35.060Z,22.60
2022-12-03T07:01:41.745Z,24.38
2022-12-03T07:06:45.220Z,23.02
2022-12-03T07:11:48.605Z,22.27
2022-12-03T07:16:53.320Z,25.30
2022-12-03T07:21:56.723Z,23.92
2022-12-03T07:27:00.104Z,22.58
2022-12-03T07:32:05.103Z,25.55
2022-12-03T07:37:08.613Z,27.40
2022-12-03T07:42:12.221Z,25.85
2022-12-03T07:47:17.181Z,21.02
2022-12-03T07:52:21.947Z,21.10
2022-12-03T07:57:25.358Z,23.17
2022-12-03T08:02:30.219Z,23.02
2022-12-03T08:07:33.782Z,21.73
2022-12-03T08:12:42.643Z,22.55
2022-12-03T08:17:51.480Z,23.02
2022-12-03T08:22:56.993Z,22.58
2022-12-03T08:28:09.031Z,23.27
2022-12-03T08:33:21.529Z,23.38
2022-12-03T08:38:26.258Z,18.33
2022-12-03T08:43:35.935Z,25.25
2022-12-03T08:48:45.437Z,24.50
2022-12-03T08:53:59.782Z,25.40
2022-12-03T08:59:22.495Z,29.27
2022-12-03T09:04:31.958Z,25.77
2022-12-03T09:09:35.577Z,28.52
2022-12-03T09:14:38.942Z,27.15
2022-12-03T09:19:46.195Z,27.67
2022-12-03T09:24:49.927Z,26.33
2022-12-03T09:29:53.386Z,27.90
2022-12-03T09:34:58.083Z,26.42
2022-12-03T09:40:01.510Z,27.95
2022-12-03T09:45:11.039Z,28.25
2022-12-03T09:50:18.067Z,25.70
2022-12-03T09:55:24.548Z,29.20
2022-12-03T10:00:30.767Z,27.77
2022-12-03T10:05:36.024Z,28.98
2022-12-03T10:10:41.543Z,29.75
2022-12-03T10:15:45.003Z,29.52
2022-12-03T10:20:50.717Z,30.35
2022-12-03T10:25:56.901Z,33.20
2022-12-03T10:31:01.233Z,31.02
2022-12-03T10:36:18.412Z,31.42
2022-12-03T10:41:24.141Z,37.45
2022-12-03T10:46:27.901Z,32.08
2022-12-03T10:51:32.738Z,33.15
2022-12-03T10:56:36.186Z,30.15
2022-12-03T11:01:39.676Z,29.45
2022-12-03T11:06:44.425Z,28.88
2022-12-03T11:11:48.220Z,28.13
2022-12-03T11:17:09.914Z,28.42
2022-12-03T11:22:47.238Z,29.08
2022-12-03T11:28:26.330Z,28.92
2022-12-03T11:33:31.733Z,30.95
2022-12-03T11:39:02.826Z,31.58
2022-12-03T11:44:31.496Z,30.42
2022-12-03T11:49:38.878Z,30.00
2022-12-03T11:54:43.894Z,30.13
2022-12-03T12:00:14.429Z,30.83
2022-12-03T12:05:25.713Z,29.27
2022-12-03T12:10:41.660Z,30.88
2022-12-03T12:15:45.751Z,30.55
2022-12-03T12:20:49.186Z,30.80
2022-12-03T12:25:54.472Z,31.58
2022-12-03T12:30:58.619Z,32.35
2022-12-03T12:36:06.676Z,34.03
2022-12-03T12:41:12.371Z,29.70
2022-12-03T12:46:46.653Z,32.70
2022-12-03T12:51:44.722Z,34.30
2022-12-03T12:56:51.358Z,32.92
2022-12-03T13:01:54.765Z,32.33
2022-12-03T13:06:58.162Z,32.90
2022-12-03T13:12:04.480Z,32.55
2022-12-03T13:17:15.420Z,34.88
2022-12-03T13:22:21.944Z,34.30
2022-12-03T13:27:30.555Z,35.03
2022-12-03T13:32:37.110Z,36.60
2022-12-03T13:37:40.616Z,35.58
2022-12-03T13:42:46.626Z,34.78
2022-12-03T13:47:54.232Z,35.20
2022-12-03T13:52:58.701Z,34.03
2022-12-03T13:58:03.851Z,32.80
2022-12-03T14:03:07.283Z,32.60
2022-12-03T14:08:10.705Z,34.58
2022-12-03T14:13:15.756Z,36.38
2022-12-03T14:18:19.268Z,33.45
2022-12-03T14:23:22.868Z,32.28
2022-12-03T14:28:27.626Z,30.63
2022-12-03T14:33:30.978Z,31.77
2022-12-03T14:38:34.360Z,30.10
2022-12-03T14:43:39.106Z,31.40
2022-12-03T14:48:42.456Z,28.52
2022-12-03T14:53:46.231Z,27.98
2022-12-03T14:58:51.103Z,29.92
2022-12-03T15:03:54.685Z,30.63
2022-12-03T15:08:58.091Z,30.23
2022-12-03T15:14:02.815Z,32.92
2022-12-03T15:19:06.240Z,30.00
2022-12-03T15:24:10.397Z,32.38
2022-12-03T15:29:15.151Z,30.58
2022-12-03T15:34:22.625Z,30.48
2022-12-03T15:39:26.629Z,35.15
2022-12-03T15:44:31.361Z,34.55
2022-12-03T15:49:34.740Z,33.28
2022-12-03T15:54:38.595Z,33.65
2022-12-03T15:59:43.763Z,32.13
2022-12-03T16:04:47.155Z,33.22
2022-12-03T16:09:50.983Z,31.58
2022-12-03T16:14:55.760Z,33.08
2022-12-03T16:19:59.163Z,32.67
2022-12-03T16:25:03.244Z,33.25
2022-12-03T16:30:09.682Z,31.45
2022-12-03T16:35:13.597Z,33.20
2022-12-03T16:40:17.013Z,34.47
2022-12-03T16:45:54.427Z,35.00
2022-12-03T16:50:58.840Z,38.28
2022-12-03T16:56:04.903Z,35.03
2022-12-03T17:01:11.163Z,36.47
2022-12-03T17:06:15.655Z,34.72
2022-12-03T17:11:20.116Z,33.53
2022-12-03T17:16:25.730Z,37.15
2022-12-03T17:21:34.859Z,36.65
2022-12-03T17:26:45.399Z,39.63
2022-12-03T17:31:51.157Z,40.42
2022-12-03T17:36:58.247Z,43.28
2022-12-03T17:42:01.680Z,44.13
2022-12-03T17:47:06.834Z,42.42
2022-12-03T17:52:10.227Z,44.85
2022-12-03T17:57:13.873Z,43.45
2022-12-03T18:02:19.002Z,43.83
2022-12-03T18:07:22.517Z,42.30
2022-12-03T18:12:25.985Z,43.03
2022-12-03T18:17:30.752Z,46.75
2022-12-03T18:22:34.625Z,45.45
2022-12-03T18:27:38.068Z,45.97
2022-12-03T18:32:42.835Z,45.40
2022-12-03T18:37:46.259Z,43.83
2022-12-03T18:42:49.732Z,43.30
2022-12-03T18:47:54.931Z,44.38
2022-12-03T18:52:58.543Z,42.00
2022-12-03T18:58:02.855Z,44.53
2022-12-03T19:03:07.870Z,45.95
2022-12-03T19:08:14.860Z,46.10
2022-12-03T19:13:18.589Z,46.25
2022-12-03T19:18:24.219Z,49.00
2022-12-03T19:23:32.579Z,48.38
2022-12-03T19:28:37.233Z,47.50
2022-12-03T19:33:46.325Z,53.25
2022-12-03T19:38:56.625Z,50.35
2022-12-03T19:44:07.823Z,49.08
2022-12-03T19:49:16.740Z,47.55
2022-12-03T19:54:30.744Z,47.50
2022-12-03T19:59:34.496Z,46.75
2022-12-03T20:04:41.474Z,45.05
2022-12-03T20:09:45.195Z,48.80
2022-12-03T20:14:52.151Z,44.80
2022-12-03T20:19:57.666Z,48.55
2022-12-03T20:25:03.711Z,47.58
2022-12-03T20:30:08.313Z,44.80
2022-12-03T20:35:13.088Z,44.20
2022-12-03T20:40:19.508Z,47.75
2022-12-03T20:45:27.011Z,43.38
2022-12-03T20:50:32.084Z,47.58
2022-12-03T20:55:38.001Z,42.65
2022-12-03T21:00:41.812Z,45.80
2022-12-03T21:05:47.592Z,45.20
2022-12-03T21:10:51.669Z,40.28
2022-12-03T21:16:04.853Z,42.45
2022-12-03T21:21:13.982Z,41.22
2022-12-03T21:26:19.649Z,43.88
2022-12-03T21:31:32.450Z,46.10
2022-12-03T21:36:37.335Z,46.33
2022-12-03T21:41:40.768Z,45.20
2022-12-03T21:47:09.562Z,45.95
2022-12-03T21:52:18.138Z,51.10
2022-12-03T21:57:21.776Z,48.97
2022-12-03T22:02:25.412Z,44.40
2022-12-03T22:07:33.087Z,46.63
2022-12-03T22:12:40.794Z,46.78
2022-12-03T22:17:44.207Z,46.60
2022-12-03T22:22:49.284Z,43.95
2022-12-03T22:27:52.761Z,45.60
2022-12-03T22:32:56.134Z,46.35
2022-12-03T22:38:00.899Z,47.17
2022-12-03T22:43:04.311Z,45.30
2022-12-03T22:48:08.167Z,45.72
2022-12-03T22:53:13.026Z,45.67
2022-12-03T22:58:16.447Z,43.67
2022-12-03T23:03:20.315Z,46.17
2022-12-03T23:08:25.134Z,45.97
2022-12-03T23:13:28.837Z,43.58
2022-12-03T23:18:32.488Z,42.38
2022-12-03T23:23:37.223Z,42.35
2022-12-03T23:28:42.948Z,41.75
2022-12-03T23:33:47.191Z,41.38
2022-12-03T23:38:52.028Z,39.58
2022-12-03T23:43:55.849Z,40.15
2022-12-03T23:49:00.260Z,42.13
2022-12-03T23:54:05.269Z,40.58
2022-12-03T23:59:08.683Z,41.90
